sensor_id;sensor_type;location;lat;lon;timestamp;temperature;humidity
674;DHT22;319;48.764;9.174;2023-09-30T00:10:55;19.30;99.90
674;DHT22;319;48.764;9.174;2023-09-30T00:13:33;20.30;99.90
674;DHT22;319;48.764;9.174;2023-09-30T00:16:35;19.60;99.90
674;DHT22;319;48.764;9.174;2023-09-30T00:19:34;19.50;99.90
674;DHT22;319;48.764;9.174;2023-09-30T00:22:39;19.20;99.90
674;DHT22;319;48.764;9.174;2023-09-30T00:25:08;19.20;99.90
674;DHT22;319;48.764;9.174;2023-09-30T00:37:54;19.50;99.90
674;DHT22;319;48.764;9.174;2023-09-30T00:40:35;18.60;99.90
674;DHT22;319;48.764;9.174;2023-09-30T00:43:05;18.90;99.90
674;DHT22;319;48.764;9.174;2023-09-30T01:17:01;18.70;99.90
674;DHT22;319;48.764;9.174;2023-09-30T01:19:53;19.10;99.90
674;DHT22;319;48.764;9.174;2023-09-30T01:27:23;19.00;99.90
674;DHT22;319;48.764;9.174;2023-09-30T01:30:11;18.90;99.90
674;DHT22;319;48.764;9.174;2023-09-30T01:32:52;18.90;99.90
674;DHT22;319;48.764;9.174;2023-09-30T01:35:51;18.90;99.90
674;DHT22;319;48.764;9.174;2023-09-30T01:38:24;19.00;99.90
674;DHT22;319;48.764;9.174;2023-09-30T01:41:10;19.50;99.90
674;DHT22;319;48.764;9.174;2023-09-30T01:50:59;18.60;99.90
674;DHT22;319;48.764;9.174;2023-09-30T01:53:52;18.80;99.90
674;DHT22;319;48.764;9.174;2023-09-30T01:56:26;18.80;99.90
674;DHT22;319;48.764;9.174;2023-09-30T02:16:04;18.70;99.90
674;DHT22;319;48.764;9.174;2023-09-30T02:22:29;18.70;99.90
674;DHT22;319;48.764;9.174;2023-09-30T02:28:18;18.90;99.90
674;DHT22;319;48.764;9.174;2023-09-30T02:31:06;18.80;99.90
674;DHT22;319;48.764;9.174;2023-09-30T02:34:14;18.40;99.90
674;DHT22;319;48.764;9.174;2023-09-30T02:36:49;18.30;99.90
674;DHT22;319;48.764;9.174;2023-09-30T02:40:05;18.20;99.90
674;DHT22;319;48.764;9.174;2023-09-30T02:43:00;17.10;99.90
674;DHT22;319;48.764;9.174;2023-09-30T02:45:36;18.30;99.90
674;DHT22;319;48.764;9.174;2023-09-30T02:48:27;18.40;99.90
674;DHT22;319;48.764;9.174;2023-09-30T03:36:26;18.00;99.90
674;DHT22;319;48.764;9.174;2023-09-30T03:42:31;18.20;99.90
674;DHT22;319;48.764;9.174;2023-09-30T04:06:48;18.00;99.90
674;DHT22;319;48.764;9.174;2023-09-30T04:10:10;18.90;99.90
674;DHT22;319;48.764;9.174;2023-09-30T04:13:10;17.30;99.90
674;DHT22;319;48.764;9.174;2023-09-30T04:16:01;19.20;99.90
674;DHT22;319;48.764;9.174;2023-09-30T04:18:51;18.20;99.90
674;DHT22;319;48.764;9.174;2023-09-30T04:21:32;18.40;99.90
674;DHT22;319;48.764;9.174;2023-09-30T04:28:30;18.30;99.90
674;DHT22;319;48.764;9.174;2023-09-30T04:34:42;19.00;99.90
674;DHT22;319;48.764;9.174;2023-09-30T04:37:45;18.50;99.90
674;DHT22;319;48.764;9.174;2023-09-30T04:40:53;18.20;99.90
674;DHT22;319;48.764;9.174;2023-09-30T05:18:55;18.00;99.90
674;DHT22;319;48.764;9.174;2023-09-30T05:21:33;19.60;99.90
674;DHT22;319;48.764;9.174;2023-09-30T05:24:16;17.90;99.90
674;DHT22;319;48.764;9.174;2023-09-30T05:27:30;17.90;99.90
674;DHT22;319;48.764;9.174;2023-09-30T05:30:00;17.70;99.90
674;DHT22;319;48.764;9.174;2023-09-30T06:04:14;18.70;99.90
674;DHT22;319;48.764;9.174;2023-09-30T06:07:14;19.50;99.90
674;DHT22;319;48.764;9.174;2023-09-30T06:13:31;18.40;99.90
674;DHT22;319;48.764;9.174;2023-09-30T06:26:40;19.40;99.90
674;DHT22;319;48.764;9.174;2023-09-30T06:30:50;18.70;99.90
674;DHT22;319;48.764;9.174;2023-09-30T06:46:29;18.60;99.90
674;DHT22;319;48.764;9.174;2023-09-30T06:48:59;18.90;99.90
674;DHT22;319;48.764;9.174;2023-09-30T06:51:26;19.10;99.90
674;DHT22;319;48.764;9.174;2023-09-30T07:10:58;19.90;99.90
674;DHT22;319;48.764;9.174;2023-09-30T07:37:23;20.00;99.90
674;DHT22;319;48.764;9.174;2023-09-30T07:40:09;20.40;99.90
674;DHT22;319;48.764;9.174;2023-09-30T07:45:59;20.20;99.90
674;DHT22;319;48.764;9.174;2023-09-30T08:33:59;21.40;98.40
674;DHT22;319;48.764;9.174;2023-09-30T08:44:12;23.10;95.50
674;DHT22;319;48.764;9.174;2023-09-30T08:47:43;23.70;95.20
674;DHT22;319;48.764;9.174;2023-09-30T08:51:05;22.80;92.50
674;DHT22;319;48.764;9.174;2023-09-30T08:54:20;22.80;92.10
674;DHT22;319;48.764;9.174;2023-09-30T08:58:03;23.80;93.00
674;DHT22;319;48.764;9.174;2023-09-30T09:00:33;22.00;92.10
674;DHT22;319;48.764;9.174;2023-09-30T09:03:49;22.00;92.30
674;DHT22;319;48.764;9.174;2023-09-30T09:08:11;23.20;92.30
674;DHT22;319;48.764;9.174;2023-09-30T09:10:38;22.70;92.40
674;DHT22;319;48.764;9.174;2023-09-30T09:13:44;22.70;93.40
674;DHT22;319;48.764;9.174;2023-09-30T09:16:22;22.60;93.50
674;DHT22;319;48.764;9.174;2023-09-30T09:19:18;22.90;93.90
674;DHT22;319;48.764;9.174;2023-09-30T09:22:32;22.40;94.30
674;DHT22;319;48.764;9.174;2023-09-30T09:25:22;22.20;94.20
674;DHT22;319;48.764;9.174;2023-09-30T09:35:42;22.00;94.60
674;DHT22;319;48.764;9.174;2023-09-30T09:45:39;21.70;94.40
674;DHT22;319;48.764;9.174;2023-09-30T09:48:59;21.50;94.80
674;DHT22;319;48.764;9.174;2023-09-30T09:52:11;21.70;95.90
674;DHT22;319;48.764;9.174;2023-09-30T09:55:19;20.80;96.10
674;DHT22;319;48.764;9.174;2023-09-30T09:58:22;20.50;96.10
674;DHT22;319;48.764;9.174;2023-09-30T10:01:05;20.90;96.70
674;DHT22;319;48.764;9.174;2023-09-30T10:03:54;20.90;97.10
674;DHT22;319;48.764;9.174;2023-09-30T10:07:20;21.20;95.80
674;DHT22;319;48.764;9.174;2023-09-30T10:10:35;22.40;96.60
674;DHT22;319;48.764;9.174;2023-09-30T10:14:10;21.90;95.90
674;DHT22;319;48.764;9.174;2023-09-30T10:17:18;21.90;95.20
674;DHT22;319;48.764;9.174;2023-09-30T10:31:46;23.20;92.20
674;DHT22;319;48.764;9.174;2023-09-30T10:36:57;24.00;91.90
674;DHT22;319;48.764;9.174;2023-09-30T10:41:56;23.30;91.40
674;DHT22;319;48.764;9.174;2023-09-30T10:44:49;23.50;91.00
674;DHT22;319;48.764;9.174;2023-09-30T10:47:47;23.40;91.00
674;DHT22;319;48.764;9.174;2023-09-30T10:51:25;23.40;90.80
674;DHT22;319;48.764;9.174;2023-09-30T10:54:09;23.70;90.50
674;DHT22;319;48.764;9.174;2023-09-30T11:03:58;24.20;89.30
674;DHT22;319;48.764;9.174;2023-09-30T11:06:29;23.50;90.10
674;DHT22;319;48.764;9.174;2023-09-30T11:09:16;23.70;90.50
674;DHT22;319;48.764;9.174;2023-09-30T11:12:02;23.40;89.40
674;DHT22;319;48.764;9.174;2023-09-30T11:15:04;23.40;89.80
674;DHT22;319;48.764;9.174;2023-09-30T11:17:41;24.40;90.10
674;DHT22;319;48.764;9.174;2023-09-30T11:20:10;23.00;90.40
674;DHT22;319;48.764;9.174;2023-09-30T11:22:39;23.00;90.70
674;DHT22;319;48.764;9.174;2023-09-30T11:25:34;21.70;88.40
674;DHT22;319;48.764;9.174;2023-09-30T11:28:25;23.90;90.70
674;DHT22;319;48.764;9.174;2023-09-30T11:30:56;23.30;89.90
674;DHT22;319;48.764;9.174;2023-09-30T11:37:04;23.40;88.90
674;DHT22;319;48.764;9.174;2023-09-30T11:39:38;23.20;88.90
674;DHT22;319;48.764;9.174;2023-09-30T11:42:33;23.20;88.70
674;DHT22;319;48.764;9.174;2023-09-30T11:45:30;23.10;90.10
674;DHT22;319;48.764;9.174;2023-09-30T11:48:22;22.40;88.80
674;DHT22;319;48.764;9.174;2023-09-30T11:51:41;23.30;88.10
674;DHT22;319;48.764;9.174;2023-09-30T11:54:55;22.70;87.00
674;DHT22;319;48.764;9.174;2023-09-30T11:58:03;23.30;83.60
674;DHT22;319;48.764;9.174;2023-09-30T12:00:35;23.20;82.90
674;DHT22;319;48.764;9.174;2023-09-30T12:03:03;23.60;83.80
674;DHT22;319;48.764;9.174;2023-09-30T12:05:37;23.70;80.60
674;DHT22;319;48.764;9.174;2023-09-30T12:08:12;24.00;83.30
674;DHT22;319;48.764;9.174;2023-09-30T12:10:51;23.90;82.70
674;DHT22;319;48.764;9.174;2023-09-30T12:13:22;23.90;84.60
674;DHT22;319;48.764;9.174;2023-09-30T12:15:49;24.20;83.80
674;DHT22;319;48.764;9.174;2023-09-30T12:18:45;24.20;82.90
674;DHT22;319;48.764;9.174;2023-09-30T12:21:12;24.30;82.70
674;DHT22;319;48.764;9.174;2023-09-30T12:23:59;24.90;84.50
674;DHT22;319;48.764;9.174;2023-09-30T12:26:46;24.20;82.10
674;DHT22;319;48.764;9.174;2023-09-30T12:29:39;24.30;82.30
674;DHT22;319;48.764;9.174;2023-09-30T12:32:14;24.30;80.60
674;DHT22;319;48.764;9.174;2023-09-30T12:34:41;23.70;79.70
674;DHT22;319;48.764;9.174;2023-09-30T12:37:47;23.70;78.80
674;DHT22;319;48.764;9.174;2023-09-30T12:40:19;23.40;78.90
674;DHT22;319;48.764;9.174;2023-09-30T12:43:16;23.60;79.20
674;DHT22;319;48.764;9.174;2023-09-30T12:45:43;23.70;79.10
674;DHT22;319;48.764;9.174;2023-09-30T12:48:38;24.20;78.10
674;DHT22;319;48.764;9.174;2023-09-30T12:51:31;23.60;76.50
674;DHT22;319;48.764;9.174;2023-09-30T12:54:09;23.60;80.50
674;DHT22;319;48.764;9.174;2023-09-30T12:56:43;23.20;82.30
674;DHT22;319;48.764;9.174;2023-09-30T12:59:14;23.50;84.40
674;DHT22;319;48.764;9.174;2023-09-30T13:01:45;23.50;84.50
674;DHT22;319;48.764;9.174;2023-09-30T13:04:19;23.30;84.40
674;DHT22;319;48.764;9.174;2023-09-30T13:06:48;23.20;83.30
674;DHT22;319;48.764;9.174;2023-09-30T13:09:16;23.50;83.30
674;DHT22;319;48.764;9.174;2023-09-30T13:11:43;23.60;82.40
674;DHT22;319;48.764;9.174;2023-09-30T13:14:20;23.50;81.70
674;DHT22;319;48.764;9.174;2023-09-30T13:16:53;23.50;81.70
674;DHT22;319;48.764;9.174;2023-09-30T13:19:29;23.60;82.40
674;DHT22;319;48.764;9.174;2023-09-30T13:22:01;23.60;81.10
674;DHT22;319;48.764;9.174;2023-09-30T13:24:41;24.20;82.60
674;DHT22;319;48.764;9.174;2023-09-30T13:27:19;23.30;81.10
674;DHT22;319;48.764;9.174;2023-09-30T13:29:57;23.40;81.50
674;DHT22;319;48.764;9.174;2023-09-30T13:32:34;23.00;81.40
674;DHT22;319;48.764;9.174;2023-09-30T13:35:30;23.20;81.00
674;DHT22;319;48.764;9.174;2023-09-30T13:41:45;23.30;80.80
674;DHT22;319;48.764;9.174;2023-09-30T13:44:30;23.30;81.30
674;DHT22;319;48.764;9.174;2023-09-30T13:47:41;23.20;80.30
674;DHT22;319;48.764;9.174;2023-09-30T13:50:50;23.50;81.50
674;DHT22;319;48.764;9.174;2023-09-30T13:53:36;23.30;82.60
674;DHT22;319;48.764;9.174;2023-09-30T13:56:13;23.20;85.60
674;DHT22;319;48.764;9.174;2023-09-30T13:59:06;23.20;84.20
674;DHT22;319;48.764;9.174;2023-09-30T14:05:16;22.90;83.80
674;DHT22;319;48.764;9.174;2023-09-30T14:07:51;22.90;85.00
674;DHT22;319;48.764;9.174;2023-09-30T14:13:20;23.00;84.00
674;DHT22;319;48.764;9.174;2023-09-30T14:15:47;23.00;83.80
674;DHT22;319;48.764;9.174;2023-09-30T14:18:19;22.80;84.60
674;DHT22;319;48.764;9.174;2023-09-30T14:20:52;22.90;85.90
674;DHT22;319;48.764;9.174;2023-09-30T14:23:20;22.70;85.10
674;DHT22;319;48.764;9.174;2023-09-30T14:26:04;22.70;86.00
674;DHT22;319;48.764;9.174;2023-09-30T14:28:36;22.90;86.50
674;DHT22;319;48.764;9.174;2023-09-30T14:31:15;22.80;86.90
674;DHT22;319;48.764;9.174;2023-09-30T14:33:53;22.70;85.20
674;DHT22;319;48.764;9.174;2023-09-30T14:36:52;22.70;85.70
674;DHT22;319;48.764;9.174;2023-09-30T14:39:26;22.60;85.60
674;DHT22;319;48.764;9.174;2023-09-30T14:41:59;22.50;84.70
674;DHT22;319;48.764;9.174;2023-09-30T14:44:27;22.40;84.30
674;DHT22;319;48.764;9.174;2023-09-30T14:46:54;22.40;85.50
674;DHT22;319;48.764;9.174;2023-09-30T14:49:26;22.50;83.10
674;DHT22;319;48.764;9.174;2023-09-30T14:52:01;22.80;83.90
674;DHT22;319;48.764;9.174;2023-09-30T14:54:34;22.40;85.50
674;DHT22;319;48.764;9.174;2023-09-30T14:57:20;22.80;84.30
674;DHT22;319;48.764;9.174;2023-09-30T15:00:30;23.00;84.30
674;DHT22;319;48.764;9.174;2023-09-30T15:03:14;22.90;84.10
674;DHT22;319;48.764;9.174;2023-09-30T15:05:56;22.90;84.50
674;DHT22;319;48.764;9.174;2023-09-30T15:08:25;22.80;85.50
674;DHT22;319;48.764;9.174;2023-09-30T15:10:52;22.60;84.30
674;DHT22;319;48.764;9.174;2023-09-30T15:13:32;22.50;84.40
674;DHT22;319;48.764;9.174;2023-09-30T15:16:15;22.50;85.30
674;DHT22;319;48.764;9.174;2023-09-30T15:19:00;22.60;84.70
674;DHT22;319;48.764;9.174;2023-09-30T15:21:39;22.50;84.80
674;DHT22;319;48.764;9.174;2023-09-30T15:24:21;22.30;86.40
674;DHT22;319;48.764;9.174;2023-09-30T15:26:55;22.50;85.00
674;DHT22;319;48.764;9.174;2023-09-30T15:29:22;22.40;86.10
674;DHT22;319;48.764;9.174;2023-09-30T15:31:49;23.70;87.70
674;DHT22;319;48.764;9.174;2023-09-30T15:34:19;22.40;87.10
674;DHT22;319;48.764;9.174;2023-09-30T15:36:52;22.30;85.30
674;DHT22;319;48.764;9.174;2023-09-30T15:39:24;22.30;85.80
674;DHT22;319;48.764;9.174;2023-09-30T15:42:02;22.40;84.90
674;DHT22;319;48.764;9.174;2023-09-30T15:44:40;22.40;84.90
674;DHT22;319;48.764;9.174;2023-09-30T15:47:22;22.60;84.90
674;DHT22;319;48.764;9.174;2023-09-30T15:49:55;22.20;84.20
674;DHT22;319;48.764;9.174;2023-09-30T15:52:31;22.30;85.50
674;DHT22;319;48.764;9.174;2023-09-30T15:55:06;22.10;84.20
674;DHT22;319;48.764;9.174;2023-09-30T15:57:47;22.30;84.80
674;DHT22;319;48.764;9.174;2023-09-30T16:00:23;22.10;86.40
674;DHT22;319;48.764;9.174;2023-09-30T16:03:09;22.00;85.20
674;DHT22;319;48.764;9.174;2023-09-30T16:05:40;21.90;85.30
674;DHT22;319;48.764;9.174;2023-09-30T16:08:29;22.90;88.40
674;DHT22;319;48.764;9.174;2023-09-30T16:10:58;22.10;85.60
674;DHT22;319;48.764;9.174;2023-09-30T16:13:28;22.00;87.80
674;DHT22;319;48.764;9.174;2023-09-30T16:15:55;22.10;86.90
674;DHT22;319;48.764;9.174;2023-09-30T16:18:22;21.90;87.00
674;DHT22;319;48.764;9.174;2023-09-30T16:20:49;21.70;86.60
674;DHT22;319;48.764;9.174;2023-09-30T16:23:39;21.70;86.20
674;DHT22;319;48.764;9.174;2023-09-30T16:26:17;21.90;86.20
674;DHT22;319;48.764;9.174;2023-09-30T16:28:44;21.70;87.40
674;DHT22;319;48.764;9.174;2023-09-30T16:31:11;21.70;86.50
674;DHT22;319;48.764;9.174;2023-09-30T16:33:38;21.60;86.50
674;DHT22;319;48.764;9.174;2023-09-30T16:36:05;21.50;86.00
674;DHT22;319;48.764;9.174;2023-09-30T16:38:32;21.50;86.50
674;DHT22;319;48.764;9.174;2023-09-30T16:40:59;21.50;87.40
674;DHT22;319;48.764;9.174;2023-09-30T16:43:31;21.40;87.30
674;DHT22;319;48.764;9.174;2023-09-30T16:46:00;21.40;87.10
674;DHT22;319;48.764;9.174;2023-09-30T16:48:27;21.40;87.70
674;DHT22;319;48.764;9.174;2023-09-30T16:50:54;21.20;87.60
674;DHT22;319;48.764;9.174;2023-09-30T16:53:24;21.10;87.50
674;DHT22;319;48.764;9.174;2023-09-30T16:55:51;21.00;87.40
674;DHT22;319;48.764;9.174;2023-09-30T16:58:18;21.00;88.10
674;DHT22;319;48.764;9.174;2023-09-30T17:00:46;20.90;88.10
674;DHT22;319;48.764;9.174;2023-09-30T17:03:17;21.00;88.70
674;DHT22;319;48.764;9.174;2023-09-30T17:05:44;21.10;90.10
674;DHT22;319;48.764;9.174;2023-09-30T17:08:34;20.70;88.90
674;DHT22;319;48.764;9.174;2023-09-30T17:11:01;20.50;87.70
674;DHT22;319;48.764;9.174;2023-09-30T17:17:07;21.30;89.10
674;DHT22;319;48.764;9.174;2023-09-30T17:19:34;20.80;89.80
674;DHT22;319;48.764;9.174;2023-09-30T17:22:01;20.60;90.20
674;DHT22;319;48.764;9.174;2023-09-30T17:24:30;20.50;90.60
674;DHT22;319;48.764;9.174;2023-09-30T17:26:57;20.40;90.90
674;DHT22;319;48.764;9.174;2023-09-30T17:29:24;21.10;91.70
674;DHT22;319;48.764;9.174;2023-09-30T17:31:52;20.10;91.20
674;DHT22;319;48.764;9.174;2023-09-30T17:34:20;20.10;91.80
674;DHT22;319;48.764;9.174;2023-09-30T17:36:49;21.20;92.80
674;DHT22;319;48.764;9.174;2023-09-30T17:39:16;19.60;92.20
674;DHT22;319;48.764;9.174;2023-09-30T17:41:43;19.90;92.50
674;DHT22;319;48.764;9.174;2023-09-30T17:44:13;19.80;92.30
674;DHT22;319;48.764;9.174;2023-09-30T17:46:43;20.90;93.30
674;DHT22;319;48.764;9.174;2023-09-30T17:49:10;19.80;92.30
674;DHT22;319;48.764;9.174;2023-09-30T17:51:39;19.60;92.50
674;DHT22;319;48.764;9.174;2023-09-30T17:54:08;19.70;93.10
674;DHT22;319;48.764;9.174;2023-09-30T17:56:35;19.40;93.20
674;DHT22;319;48.764;9.174;2023-09-30T17:59:02;19.00;94.70
674;DHT22;319;48.764;9.174;2023-09-30T18:01:29;19.30;93.20
674;DHT22;319;48.764;9.174;2023-09-30T18:03:56;19.20;93.30
674;DHT22;319;48.764;9.174;2023-09-30T18:06:22;19.20;93.40
674;DHT22;319;48.764;9.174;2023-09-30T18:08:51;19.10;93.40
674;DHT22;319;48.764;9.174;2023-09-30T18:11:17;19.10;93.50
674;DHT22;319;48.764;9.174;2023-09-30T18:13:44;19.10;93.60
674;DHT22;319;48.764;9.174;2023-09-30T18:16:12;19.10;93.60
674;DHT22;319;48.764;9.174;2023-09-30T18:18:38;19.10;93.70
674;DHT22;319;48.764;9.174;2023-09-30T18:21:05;19.10;93.80
674;DHT22;319;48.764;9.174;2023-09-30T18:23:32;19.10;93.90
674;DHT22;319;48.764;9.174;2023-09-30T18:26:01;19.10;94.00
674;DHT22;319;48.764;9.174;2023-09-30T18:28:28;19.10;94.10
674;DHT22;319;48.764;9.174;2023-09-30T18:30:56;19.10;94.00
674;DHT22;319;48.764;9.174;2023-09-30T18:33:24;19.10;94.10
674;DHT22;319;48.764;9.174;2023-09-30T18:35:51;19.00;94.20
674;DHT22;319;48.764;9.174;2023-09-30T18:38:18;19.00;94.50
674;DHT22;319;48.764;9.174;2023-09-30T18:40:46;18.90;94.50
674;DHT22;319;48.764;9.174;2023-09-30T18:43:14;18.80;94.80
674;DHT22;319;48.764;9.174;2023-09-30T18:45:42;18.70;95.00
674;DHT22;319;48.764;9.174;2023-09-30T18:48:09;18.60;94.90
674;DHT22;319;48.764;9.174;2023-09-30T18:50:40;18.60;95.10
674;DHT22;319;48.764;9.174;2023-09-30T18:53:08;18.60;95.20
674;DHT22;319;48.764;9.174;2023-09-30T18:55:36;18.60;95.10
674;DHT22;319;48.764;9.174;2023-09-30T18:58:04;18.50;95.10
674;DHT22;319;48.764;9.174;2023-09-30T19:00:32;18.50;95.20
674;DHT22;319;48.764;9.174;2023-09-30T19:02:59;18.40;95.10
674;DHT22;319;48.764;9.174;2023-09-30T19:05:26;18.30;95.30
674;DHT22;319;48.764;9.174;2023-09-30T19:07:53;18.30;95.50
674;DHT22;319;48.764;9.174;2023-09-30T19:10:20;18.30;95.60
674;DHT22;319;48.764;9.174;2023-09-30T19:12:46;18.20;96.00
674;DHT22;319;48.764;9.174;2023-09-30T19:15:13;18.20;96.30
674;DHT22;319;48.764;9.174;2023-09-30T19:17:41;18.10;96.50
674;DHT22;319;48.764;9.174;2023-09-30T19:20:10;18.00;96.70
674;DHT22;319;48.764;9.174;2023-09-30T19:22:37;18.00;97.00
674;DHT22;319;48.764;9.174;2023-09-30T19:25:05;17.90;97.10
674;DHT22;319;48.764;9.174;2023-09-30T19:27:32;17.90;97.40
674;DHT22;319;48.764;9.174;2023-09-30T19:29:59;17.90;97.30
674;DHT22;319;48.764;9.174;2023-09-30T19:32:26;17.80;97.30
674;DHT22;319;48.764;9.174;2023-09-30T19:34:54;17.80;97.40
674;DHT22;319;48.764;9.174;2023-09-30T19:37:21;17.80;97.50
674;DHT22;319;48.764;9.174;2023-09-30T19:39:48;17.70;97.60
674;DHT22;319;48.764;9.174;2023-09-30T19:42:14;17.70;97.70
674;DHT22;319;48.764;9.174;2023-09-30T19:44:41;17.60;97.70
674;DHT22;319;48.764;9.174;2023-09-30T19:47:10;17.50;97.90
674;DHT22;319;48.764;9.174;2023-09-30T19:49:37;17.50;98.10
674;DHT22;319;48.764;9.174;2023-09-30T19:52:05;17.50;98.20
674;DHT22;319;48.764;9.174;2023-09-30T19:54:34;17.50;98.40
674;DHT22;319;48.764;9.174;2023-09-30T19:57:01;17.40;98.60
674;DHT22;319;48.764;9.174;2023-09-30T19:59:28;17.30;98.60
674;DHT22;319;48.764;9.174;2023-09-30T20:01:55;17.30;98.80
674;DHT22;319;48.764;9.174;2023-09-30T20:04:22;17.30;98.80
674;DHT22;319;48.764;9.174;2023-09-30T20:06:49;17.30;98.90
674;DHT22;319;48.764;9.174;2023-09-30T20:09:17;17.20;99.00
674;DHT22;319;48.764;9.174;2023-09-30T20:11:45;17.20;99.10
674;DHT22;319;48.764;9.174;2023-09-30T20:14:11;17.20;99.10
674;DHT22;319;48.764;9.174;2023-09-30T20:16:38;17.20;99.20
674;DHT22;319;48.764;9.174;2023-09-30T20:19:06;17.20;99.30
674;DHT22;319;48.764;9.174;2023-09-30T20:21:33;17.10;99.40
674;DHT22;319;48.764;9.174;2023-09-30T20:24:02;17.00;99.60
674;DHT22;319;48.764;9.174;2023-09-30T20:26:31;17.00;99.70
674;DHT22;319;48.764;9.174;2023-09-30T20:29:00;17.10;99.70
674;DHT22;319;48.764;9.174;2023-09-30T20:31:27;17.00;99.70
674;DHT22;319;48.764;9.174;2023-09-30T20:33:54;16.90;99.90
674;DHT22;319;48.764;9.174;2023-09-30T20:36:21;17.00;99.90
674;DHT22;319;48.764;9.174;2023-09-30T20:38:48;16.90;99.90
674;DHT22;319;48.764;9.174;2023-09-30T20:41:15;16.90;99.90
674;DHT22;319;48.764;9.174;2023-09-30T20:43:44;16.80;99.90
674;DHT22;319;48.764;9.174;2023-09-30T20:46:10;16.80;99.90
674;DHT22;319;48.764;9.174;2023-09-30T20:48:38;16.70;99.90
674;DHT22;319;48.764;9.174;2023-09-30T20:51:08;16.70;99.90
674;DHT22;319;48.764;9.174;2023-09-30T20:53:34;16.60;99.90
674;DHT22;319;48.764;9.174;2023-09-30T20:56:01;16.60;99.90
674;DHT22;319;48.764;9.174;2023-09-30T20:58:28;16.60;99.90
674;DHT22;319;48.764;9.174;2023-09-30T21:00:56;16.60;99.90
674;DHT22;319;48.764;9.174;2023-09-30T21:03:23;16.60;99.90
674;DHT22;319;48.764;9.174;2023-09-30T21:05:50;16.60;99.90
674;DHT22;319;48.764;9.174;2023-09-30T21:08:18;16.50;99.90
674;DHT22;319;48.764;9.174;2023-09-30T21:10:47;16.50;99.90
674;DHT22;319;48.764;9.174;2023-09-30T21:13:14;16.50;99.90
674;DHT22;319;48.764;9.174;2023-09-30T21:15:40;16.50;99.90
674;DHT22;319;48.764;9.174;2023-09-30T21:18:08;16.40;99.90
674;DHT22;319;48.764;9.174;2023-09-30T21:20:35;16.40;99.90
674;DHT22;319;48.764;9.174;2023-09-30T21:23:02;16.30;99.90
674;DHT22;319;48.764;9.174;2023-09-30T21:25:29;16.30;99.90
674;DHT22;319;48.764;9.174;2023-09-30T21:27:57;16.30;99.90
674;DHT22;319;48.764;9.174;2023-09-30T21:30:24;16.30;99.90
674;DHT22;319;48.764;9.174;2023-09-30T21:32:50;16.20;99.90
674;DHT22;319;48.764;9.174;2023-09-30T21:35:19;16.10;99.90
674;DHT22;319;48.764;9.174;2023-09-30T21:37:46;16.00;99.90
674;DHT22;319;48.764;9.174;2023-09-30T21:40:14;16.00;99.90
674;DHT22;319;48.764;9.174;2023-09-30T21:42:40;15.90;99.90
674;DHT22;319;48.764;9.174;2023-09-30T21:45:08;15.90;99.90
674;DHT22;319;48.764;9.174;2023-09-30T21:47:36;15.90;99.90
674;DHT22;319;48.764;9.174;2023-09-30T21:50:03;15.90;99.90
674;DHT22;319;48.764;9.174;2023-09-30T21:52:31;16.00;99.90
674;DHT22;319;48.764;9.174;2023-09-30T21:54:58;16.00;99.90
674;DHT22;319;48.764;9.174;2023-09-30T21:57:24;16.00;99.90
674;DHT22;319;48.764;9.174;2023-09-30T21:59:51;15.90;99.90
674;DHT22;319;48.764;9.174;2023-09-30T22:02:18;15.90;99.90
674;DHT22;319;48.764;9.174;2023-09-30T22:04:45;15.90;99.90
674;DHT22;319;48.764;9.174;2023-09-30T22:07:12;15.80;99.90
674;DHT22;319;48.764;9.174;2023-09-30T22:09:40;15.80;99.90
674;DHT22;319;48.764;9.174;2023-09-30T22:12:06;15.80;99.90
674;DHT22;319;48.764;9.174;2023-09-30T22:14:33;15.80;99.90
674;DHT22;319;48.764;9.174;2023-09-30T22:17:00;15.80;99.90
674;DHT22;319;48.764;9.174;2023-09-30T22:19:27;15.80;99.90
674;DHT22;319;48.764;9.174;2023-09-30T22:21:54;15.70;99.90
674;DHT22;319;48.764;9.174;2023-09-30T22:24:21;15.70;99.90
674;DHT22;319;48.764;9.174;2023-09-30T22:26:49;15.80;99.90
674;DHT22;319;48.764;9.174;2023-09-30T22:29:16;15.60;99.90
674;DHT22;319;48.764;9.174;2023-09-30T22:31:43;15.70;99.90
674;DHT22;319;48.764;9.174;2023-09-30T22:34:10;15.60;99.90
674;DHT22;319;48.764;9.174;2023-09-30T22:36:37;15.60;99.90
674;DHT22;319;48.764;9.174;2023-09-30T22:39:04;15.70;99.90
674;DHT22;319;48.764;9.174;2023-09-30T22:41:31;15.70;99.90
674;DHT22;319;48.764;9.174;2023-09-30T22:43:59;15.60;99.90
674;DHT22;319;48.764;9.174;2023-09-30T22:46:26;15.60;99.90
674;DHT22;319;48.764;9.174;2023-09-30T22:48:53;15.60;99.90
674;DHT22;319;48.764;9.174;2023-09-30T22:51:22;15.60;99.90
674;DHT22;319;48.764;9.174;2023-09-30T22:53:48;15.60;99.90
674;DHT22;319;48.764;9.174;2023-09-30T22:56:16;15.60;99.90
674;DHT22;319;48.764;9.174;2023-09-30T22:58:45;15.50;99.90
674;DHT22;319;48.764;9.174;2023-09-30T23:01:21;15.60;99.90
674;DHT22;319;48.764;9.174;2023-09-30T23:03:48;15.60;99.90
674;DHT22;319;48.764;9.174;2023-09-30T23:06:17;15.60;99.90
674;DHT22;319;48.764;9.174;2023-09-30T23:08:45;15.50;99.90
674;DHT22;319;48.764;9.174;2023-09-30T23:11:14;15.50;99.90
674;DHT22;319;48.764;9.174;2023-09-30T23:13:43;15.50;99.90
674;DHT22;319;48.764;9.174;2023-09-30T23:16:11;15.50;99.90
674;DHT22;319;48.764;9.174;2023-09-30T23:18:39;15.40;99.90
674;DHT22;319;48.764;9.174;2023-09-30T23:21:06;15.40;99.90
674;DHT22;319;48.764;9.174;2023-09-30T23:23:35;15.40;99.90
674;DHT22;319;48.764;9.174;2023-09-30T23:26:02;15.40;99.90
674;DHT22;319;48.764;9.174;2023-09-30T23:28:32;15.30;99.90
674;DHT22;319;48.764;9.174;2023-09-30T23:31:00;15.30;99.90
674;DHT22;319;48.764;9.174;2023-09-30T23:33:27;15.30;99.90
674;DHT22;319;48.764;9.174;2023-09-30T23:35:56;15.20;99.90
674;DHT22;319;48.764;9.174;2023-09-30T23:38:22;15.20;99.90
674;DHT22;319;48.764;9.174;2023-09-30T23:40:49;15.20;99.90
674;DHT22;319;48.764;9.174;2023-09-30T23:43:17;15.20;99.90
674;DHT22;319;48.764;9.174;2023-09-30T23:45:44;15.20;99.90
674;DHT22;319;48.764;9.174;2023-09-30T23:48:13;15.20;99.90
674;DHT22;319;48.764;9.174;2023-09-30T23:50:41;15.20;99.90
674;DHT22;319;48.764;9.174;2023-09-30T23:53:10;15.20;99.90
674;DHT22;319;48.764;9.174;2023-09-30T23:55:38;15.20;99.90
674;DHT22;319;48.764;9.174;2023-09-30T23:58:05;15.20;99.90
